sensor_id;sensor_type;location;lat;lon;timestamp;temperature;humidity
5278;DHT22;2662;51.194;6.614;2022-09-06T00:00:07;23.00;99.90
5278;DHT22;2662;51.194;6.614;2022-09-06T00:02:35;23.00;99.90
5278;DHT22;2662;51.194;6.614;2022-09-06T00:05:02;23.10;99.90
5278;DHT22;2662;51.194;6.614;2022-09-06T00:07:30;23.20;99.90
5278;DHT22;2662;51.194;6.614;2022-09-06T00:09:57;23.30;99.90
5278;DHT22;2662;51.194;6.614;2022-09-06T00:12:25;23.30;99.90
5278;DHT22;2662;51.194;6.614;2022-09-06T00:14:52;23.30;99.90
5278;DHT22;2662;51.194;6.614;2022-09-06T00:17:19;23.30;99.90
5278;DHT22;2662;51.194;6.614;2022-09-06T00:19:46;23.20;99.90
5278;DHT22;2662;51.194;6.614;2022-09-06T00:22:13;23.20;99.90
5278;DHT22;2662;51.194;6.614;2022-09-06T00:24:39;23.10;99.90
5278;DHT22;2662;51.194;6.614;2022-09-06T00:27:07;22.90;99.90
5278;DHT22;2662;51.194;6.614;2022-09-06T00:29:35;22.80;99.90
5278;DHT22;2662;51.194;6.614;2022-09-06T00:32:02;22.70;99.90
5278;DHT22;2662;51.194;6.614;2022-09-06T00:34:29;22.60;99.90
5278;DHT22;2662;51.194;6.614;2022-09-06T00:36:56;22.70;99.90
5278;DHT22;2662;51.194;6.614;2022-09-06T00:39:22;22.60;99.90
5278;DHT22;2662;51.194;6.614;2022-09-06T00:41:49;22.50;99.90
5278;DHT22;2662;51.194;6.614;2022-09-06T00:44:16;22.50;99.90
5278;DHT22;2662;51.194;6.614;2022-09-06T00:46:45;22.60;99.90
5278;DHT22;2662;51.194;6.614;2022-09-06T00:49:14;22.60;99.90
5278;DHT22;2662;51.194;6.614;2022-09-06T00:51:49;22.60;99.90
5278;DHT22;2662;51.194;6.614;2022-09-06T00:54:16;22.60;99.90
5278;DHT22;2662;51.194;6.614;2022-09-06T00:56:43;22.60;99.90
5278;DHT22;2662;51.194;6.614;2022-09-06T00:59:10;22.50;99.90
5278;DHT22;2662;51.194;6.614;2022-09-06T01:01:37;22.50;99.90
5278;DHT22;2662;51.194;6.614;2022-09-06T01:04:05;22.30;99.90
5278;DHT22;2662;51.194;6.614;2022-09-06T01:06:41;22.10;99.90
5278;DHT22;2662;51.194;6.614;2022-09-06T01:09:19;22.00;99.90
5278;DHT22;2662;51.194;6.614;2022-09-06T01:11:56;21.90;99.90
5278;DHT22;2662;51.194;6.614;2022-09-06T01:14:34;21.80;99.90
5278;DHT22;2662;51.194;6.614;2022-09-06T01:17:13;21.50;99.90
5278;DHT22;2662;51.194;6.614;2022-09-06T01:23:22;21.30;99.90
5278;DHT22;2662;51.194;6.614;2022-09-06T01:26:04;21.20;99.90
5278;DHT22;2662;51.194;6.614;2022-09-06T01:28:36;21.20;99.90
5278;DHT22;2662;51.194;6.614;2022-09-06T01:31:15;21.20;99.90
5278;DHT22;2662;51.194;6.614;2022-09-06T01:33:49;21.10;99.90
5278;DHT22;2662;51.194;6.614;2022-09-06T01:36:19;21.10;99.90
5278;DHT22;2662;51.194;6.614;2022-09-06T01:38:47;21.10;99.90
5278;DHT22;2662;51.194;6.614;2022-09-06T01:41:14;21.10;99.90
5278;DHT22;2662;51.194;6.614;2022-09-06T01:43:46;21.10;99.90
5278;DHT22;2662;51.194;6.614;2022-09-06T01:46:18;21.10;99.90
5278;DHT22;2662;51.194;6.614;2022-09-06T01:49:03;21.10;99.90
5278;DHT22;2662;51.194;6.614;2022-09-06T01:51:39;21.00;99.90
5278;DHT22;2662;51.194;6.614;2022-09-06T01:54:22;21.00;99.90
5278;DHT22;2662;51.194;6.614;2022-09-06T01:57:02;20.90;99.90
5278;DHT22;2662;51.194;6.614;2022-09-06T02:02:49;21.00;99.90
5278;DHT22;2662;51.194;6.614;2022-09-06T02:05:22;21.00;99.90
5278;DHT22;2662;51.194;6.614;2022-09-06T02:07:52;21.00;99.90
5278;DHT22;2662;51.194;6.614;2022-09-06T02:10:23;21.00;99.90
5278;DHT22;2662;51.194;6.614;2022-09-06T02:12:54;21.10;99.90
5278;DHT22;2662;51.194;6.614;2022-09-06T02:15:25;21.10;99.90
5278;DHT22;2662;51.194;6.614;2022-09-06T02:17:58;21.10;99.90
5278;DHT22;2662;51.194;6.614;2022-09-06T02:20:28;21.20;99.90
5278;DHT22;2662;51.194;6.614;2022-09-06T02:22:59;21.20;99.90
5278;DHT22;2662;51.194;6.614;2022-09-06T02:25:30;21.00;99.90
5278;DHT22;2662;51.194;6.614;2022-09-06T02:27:59;20.70;99.90
5278;DHT22;2662;51.194;6.614;2022-09-06T02:30:27;20.70;99.90
5278;DHT22;2662;51.194;6.614;2022-09-06T02:32:57;20.70;99.90
5278;DHT22;2662;51.194;6.614;2022-09-06T02:35:25;20.70;99.90
5278;DHT22;2662;51.194;6.614;2022-09-06T02:37:52;20.70;99.90
5278;DHT22;2662;51.194;6.614;2022-09-06T02:40:20;20.70;99.90
5278;DHT22;2662;51.194;6.614;2022-09-06T02:42:47;20.80;99.90
5278;DHT22;2662;51.194;6.614;2022-09-06T02:45:14;20.70;99.90
5278;DHT22;2662;51.194;6.614;2022-09-06T02:47:42;20.70;99.90
5278;DHT22;2662;51.194;6.614;2022-09-06T02:50:09;20.80;99.90
5278;DHT22;2662;51.194;6.614;2022-09-06T02:52:37;20.80;99.90
5278;DHT22;2662;51.194;6.614;2022-09-06T02:55:05;20.70;99.90
5278;DHT22;2662;51.194;6.614;2022-09-06T02:57:32;20.70;99.90
5278;DHT22;2662;51.194;6.614;2022-09-06T02:59:59;20.60;99.90
5278;DHT22;2662;51.194;6.614;2022-09-06T03:02:26;20.50;99.90
5278;DHT22;2662;51.194;6.614;2022-09-06T03:04:54;20.40;99.90
5278;DHT22;2662;51.194;6.614;2022-09-06T03:07:20;20.40;99.90
5278;DHT22;2662;51.194;6.614;2022-09-06T03:09:47;20.50;99.90
5278;DHT22;2662;51.194;6.614;2022-09-06T03:12:14;20.70;99.90
5278;DHT22;2662;51.194;6.614;2022-09-06T03:14:41;20.70;99.90
5278;DHT22;2662;51.194;6.614;2022-09-06T03:17:07;20.70;99.90
5278;DHT22;2662;51.194;6.614;2022-09-06T03:19:36;20.60;99.90
5278;DHT22;2662;51.194;6.614;2022-09-06T03:22:04;20.70;99.90
5278;DHT22;2662;51.194;6.614;2022-09-06T03:24:30;20.70;99.90
5278;DHT22;2662;51.194;6.614;2022-09-06T03:26:57;20.70;99.90
5278;DHT22;2662;51.194;6.614;2022-09-06T03:29:24;20.60;99.90
5278;DHT22;2662;51.194;6.614;2022-09-06T03:31:51;20.60;99.90
5278;DHT22;2662;51.194;6.614;2022-09-06T03:34:18;20.60;99.90
5278;DHT22;2662;51.194;6.614;2022-09-06T03:36:44;20.60;99.90
5278;DHT22;2662;51.194;6.614;2022-09-06T03:39:12;20.70;99.90
5278;DHT22;2662;51.194;6.614;2022-09-06T03:41:39;20.60;99.90
5278;DHT22;2662;51.194;6.614;2022-09-06T03:44:06;20.60;99.90
5278;DHT22;2662;51.194;6.614;2022-09-06T03:46:33;20.60;99.90
5278;DHT22;2662;51.194;6.614;2022-09-06T03:48:59;20.60;99.90
5278;DHT22;2662;51.194;6.614;2022-09-06T03:51:26;20.60;99.90
5278;DHT22;2662;51.194;6.614;2022-09-06T03:53:53;20.60;99.90
5278;DHT22;2662;51.194;6.614;2022-09-06T03:56:21;20.60;99.90
5278;DHT22;2662;51.194;6.614;2022-09-06T03:58:48;20.50;99.90
5278;DHT22;2662;51.194;6.614;2022-09-06T04:01:15;20.50;99.90
5278;DHT22;2662;51.194;6.614;2022-09-06T04:03:41;20.40;99.90
5278;DHT22;2662;51.194;6.614;2022-09-06T04:06:08;20.30;99.90
5278;DHT22;2662;51.194;6.614;2022-09-06T04:08:35;20.20;99.90
5278;DHT22;2662;51.194;6.614;2022-09-06T04:11:03;20.10;99.90
5278;DHT22;2662;51.194;6.614;2022-09-06T04:13:32;20.00;99.90
5278;DHT22;2662;51.194;6.614;2022-09-06T04:16:00;19.90;99.90
5278;DHT22;2662;51.194;6.614;2022-09-06T04:18:27;19.80;99.90
5278;DHT22;2662;51.194;6.614;2022-09-06T04:20:54;19.70;99.90
5278;DHT22;2662;51.194;6.614;2022-09-06T04:23:22;19.60;99.90
5278;DHT22;2662;51.194;6.614;2022-09-06T04:25:50;19.60;99.90
5278;DHT22;2662;51.194;6.614;2022-09-06T04:28:18;19.50;99.90
5278;DHT22;2662;51.194;6.614;2022-09-06T04:30:50;19.40;99.90
5278;DHT22;2662;51.194;6.614;2022-09-06T04:33:17;19.40;99.90
5278;DHT22;2662;51.194;6.614;2022-09-06T04:35:47;19.40;99.90
5278;DHT22;2662;51.194;6.614;2022-09-06T04:38:14;19.30;99.90
5278;DHT22;2662;51.194;6.614;2022-09-06T04:40:41;19.30;99.90
5278;DHT22;2662;51.194;6.614;2022-09-06T04:43:08;19.30;99.90
5278;DHT22;2662;51.194;6.614;2022-09-06T04:45:35;19.10;99.90
5278;DHT22;2662;51.194;6.614;2022-09-06T04:48:03;19.20;99.90
5278;DHT22;2662;51.194;6.614;2022-09-06T04:50:30;19.10;99.90
5278;DHT22;2662;51.194;6.614;2022-09-06T04:52:56;19.00;99.90
5278;DHT22;2662;51.194;6.614;2022-09-06T04:55:23;19.00;99.90
5278;DHT22;2662;51.194;6.614;2022-09-06T04:57:50;19.00;99.90
5278;DHT22;2662;51.194;6.614;2022-09-06T05:00:18;19.00;99.90
5278;DHT22;2662;51.194;6.614;2022-09-06T05:02:44;19.00;99.90
5278;DHT22;2662;51.194;6.614;2022-09-06T05:05:12;19.00;99.90
5278;DHT22;2662;51.194;6.614;2022-09-06T05:07:39;18.90;99.90
5278;DHT22;2662;51.194;6.614;2022-09-06T05:10:06;18.90;99.90
5278;DHT22;2662;51.194;6.614;2022-09-06T05:12:33;19.00;99.90
5278;DHT22;2662;51.194;6.614;2022-09-06T05:15:00;18.90;99.90
5278;DHT22;2662;51.194;6.614;2022-09-06T05:17:27;19.00;99.90
5278;DHT22;2662;51.194;6.614;2022-09-06T05:19:54;19.10;99.90
5278;DHT22;2662;51.194;6.614;2022-09-06T05:22:22;19.00;99.90
5278;DHT22;2662;51.194;6.614;2022-09-06T05:24:48;19.00;99.90
5278;DHT22;2662;51.194;6.614;2022-09-06T05:27:15;19.00;99.90
5278;DHT22;2662;51.194;6.614;2022-09-06T05:29:42;19.00;99.90
5278;DHT22;2662;51.194;6.614;2022-09-06T05:32:09;19.10;99.90
5278;DHT22;2662;51.194;6.614;2022-09-06T05:34:35;19.10;99.90
5278;DHT22;2662;51.194;6.614;2022-09-06T05:37:02;19.00;99.90
5278;DHT22;2662;51.194;6.614;2022-09-06T05:39:30;19.10;99.90
5278;DHT22;2662;51.194;6.614;2022-09-06T05:41:57;19.00;99.90
5278;DHT22;2662;51.194;6.614;2022-09-06T05:44:25;19.00;99.90
5278;DHT22;2662;51.194;6.614;2022-09-06T05:46:51;19.00;99.90
5278;DHT22;2662;51.194;6.614;2022-09-06T05:49:18;19.00;99.90
5278;DHT22;2662;51.194;6.614;2022-09-06T05:51:49;19.10;99.90
5278;DHT22;2662;51.194;6.614;2022-09-06T05:54:16;19.20;99.90
5278;DHT22;2662;51.194;6.614;2022-09-06T05:56:44;19.20;99.90
5278;DHT22;2662;51.194;6.614;2022-09-06T05:59:11;19.20;99.90
5278;DHT22;2662;51.194;6.614;2022-09-06T06:01:46;19.40;99.90
5278;DHT22;2662;51.194;6.614;2022-09-06T06:04:13;19.50;99.90
5278;DHT22;2662;51.194;6.614;2022-09-06T06:06:40;19.70;99.90
5278;DHT22;2662;51.194;6.614;2022-09-06T06:09:07;19.90;99.90
5278;DHT22;2662;51.194;6.614;2022-09-06T06:11:34;20.10;99.90
5278;DHT22;2662;51.194;6.614;2022-09-06T06:14:03;20.40;99.90
5278;DHT22;2662;51.194;6.614;2022-09-06T06:16:30;21.00;99.90
5278;DHT22;2662;51.194;6.614;2022-09-06T06:18:56;22.10;99.90
5278;DHT22;2662;51.194;6.614;2022-09-06T06:21:25;23.70;99.90
5278;DHT22;2662;51.194;6.614;2022-09-06T06:23:54;25.00;99.90
5278;DHT22;2662;51.194;6.614;2022-09-06T06:26:22;26.30;99.90
5278;DHT22;2662;51.194;6.614;2022-09-06T06:28:49;27.50;99.90
5278;DHT22;2662;51.194;6.614;2022-09-06T06:31:18;28.20;99.90
5278;DHT22;2662;51.194;6.614;2022-09-06T06:33:46;28.70;99.90
5278;DHT22;2662;51.194;6.614;2022-09-06T06:36:20;29.20;99.90
5278;DHT22;2662;51.194;6.614;2022-09-06T06:38:49;29.70;99.90
5278;DHT22;2662;51.194;6.614;2022-09-06T06:41:17;30.40;99.90
5278;DHT22;2662;51.194;6.614;2022-09-06T06:43:45;30.80;99.90
5278;DHT22;2662;51.194;6.614;2022-09-06T06:46:14;31.40;99.90
5278;DHT22;2662;51.194;6.614;2022-09-06T06:48:44;32.10;99.90
5278;DHT22;2662;51.194;6.614;2022-09-06T06:51:12;32.60;99.90
5278;DHT22;2662;51.194;6.614;2022-09-06T06:53:39;33.60;99.90
5278;DHT22;2662;51.194;6.614;2022-09-06T06:56:13;34.40;99.90
5278;DHT22;2662;51.194;6.614;2022-09-06T06:58:41;35.10;98.70
5278;DHT22;2662;51.194;6.614;2022-09-06T07:01:09;35.40;97.60
5278;DHT22;2662;51.194;6.614;2022-09-06T07:03:36;35.40;97.00
5278;DHT22;2662;51.194;6.614;2022-09-06T07:06:05;35.10;96.70
5278;DHT22;2662;51.194;6.614;2022-09-06T07:08:32;35.50;96.40
5278;DHT22;2662;51.194;6.614;2022-09-06T07:10:59;35.30;95.50
5278;DHT22;2662;51.194;6.614;2022-09-06T07:13:26;35.20;95.70
5278;DHT22;2662;51.194;6.614;2022-09-06T07:16:08;35.40;95.20
5278;DHT22;2662;51.194;6.614;2022-09-06T07:18:35;35.30;94.80
5278;DHT22;2662;51.194;6.614;2022-09-06T07:21:10;34.90;95.40
5278;DHT22;2662;51.194;6.614;2022-09-06T07:23:37;34.90;95.80
5278;DHT22;2662;51.194;6.614;2022-09-06T07:26:05;34.80;95.40
5278;DHT22;2662;51.194;6.614;2022-09-06T07:28:32;33.80;95.70
5278;DHT22;2662;51.194;6.614;2022-09-06T07:30:58;33.00;96.50
5278;DHT22;2662;51.194;6.614;2022-09-06T07:33:26;32.70;97.30
5278;DHT22;2662;51.194;6.614;2022-09-06T07:35:55;32.80;97.40
5278;DHT22;2662;51.194;6.614;2022-09-06T07:38:23;32.60;97.40
5278;DHT22;2662;51.194;6.614;2022-09-06T07:40:54;32.10;97.70
5278;DHT22;2662;51.194;6.614;2022-09-06T07:43:21;32.10;98.30
5278;DHT22;2662;51.194;6.614;2022-09-06T07:45:56;32.50;98.40
5278;DHT22;2662;51.194;6.614;2022-09-06T07:48:23;32.90;97.70
5278;DHT22;2662;51.194;6.614;2022-09-06T07:50:49;33.60;97.00
5278;DHT22;2662;51.194;6.614;2022-09-06T07:53:16;33.10;96.70
5278;DHT22;2662;51.194;6.614;2022-09-06T07:55:44;32.90;96.40
5278;DHT22;2662;51.194;6.614;2022-09-06T07:58:11;33.60;96.30
5278;DHT22;2662;51.194;6.614;2022-09-06T08:00:38;34.50;95.70
5278;DHT22;2662;51.194;6.614;2022-09-06T08:03:05;35.40;95.10
5278;DHT22;2662;51.194;6.614;2022-09-06T08:05:32;36.00;93.80
5278;DHT22;2662;51.194;6.614;2022-09-06T08:07:59;36.40;92.40
5278;DHT22;2662;51.194;6.614;2022-09-06T08:10:26;36.50;92.00
5278;DHT22;2662;51.194;6.614;2022-09-06T08:12:54;36.60;91.30
5278;DHT22;2662;51.194;6.614;2022-09-06T08:15:21;36.50;90.90
5278;DHT22;2662;51.194;6.614;2022-09-06T08:17:48;36.50;90.80
5278;DHT22;2662;51.194;6.614;2022-09-06T08:20:15;36.90;90.80
5278;DHT22;2662;51.194;6.614;2022-09-06T08:22:43;37.00;90.40
5278;DHT22;2662;51.194;6.614;2022-09-06T08:25:09;37.10;90.20
5278;DHT22;2662;51.194;6.614;2022-09-06T08:27:36;37.10;89.60
5278;DHT22;2662;51.194;6.614;2022-09-06T08:30:06;37.40;88.50
5278;DHT22;2662;51.194;6.614;2022-09-06T08:32:33;37.40;87.70
5278;DHT22;2662;51.194;6.614;2022-09-06T08:35:00;37.20;87.30
5278;DHT22;2662;51.194;6.614;2022-09-06T08:37:27;37.40;87.90
5278;DHT22;2662;51.194;6.614;2022-09-06T08:39:54;36.90;86.90
5278;DHT22;2662;51.194;6.614;2022-09-06T08:42:21;37.00;87.20
5278;DHT22;2662;51.194;6.614;2022-09-06T08:44:49;37.10;86.10
5278;DHT22;2662;51.194;6.614;2022-09-06T08:47:19;37.10;85.40
5278;DHT22;2662;51.194;6.614;2022-09-06T08:49:48;37.60;84.30
5278;DHT22;2662;51.194;6.614;2022-09-06T08:52:41;38.00;83.20
5278;DHT22;2662;51.194;6.614;2022-09-06T08:55:22;37.10;81.70
5278;DHT22;2662;51.194;6.614;2022-09-06T08:58:05;37.00;81.80
5278;DHT22;2662;51.194;6.614;2022-09-06T09:00:35;36.00;82.10
5278;DHT22;2662;51.194;6.614;2022-09-06T09:03:08;36.40;82.90
5278;DHT22;2662;51.194;6.614;2022-09-06T09:05:37;36.80;82.40
5278;DHT22;2662;51.194;6.614;2022-09-06T09:08:11;37.10;79.40
5278;DHT22;2662;51.194;6.614;2022-09-06T09:10:41;37.80;78.70
5278;DHT22;2662;51.194;6.614;2022-09-06T09:13:18;38.00;78.70
5278;DHT22;2662;51.194;6.614;2022-09-06T09:15:47;38.50;77.10
5278;DHT22;2662;51.194;6.614;2022-09-06T09:18:20;39.00;74.60
5278;DHT22;2662;51.194;6.614;2022-09-06T09:20:47;39.10;73.90
5278;DHT22;2662;51.194;6.614;2022-09-06T09:23:14;39.20;72.70
5278;DHT22;2662;51.194;6.614;2022-09-06T09:25:41;38.70;71.50
5278;DHT22;2662;51.194;6.614;2022-09-06T09:28:15;38.50;72.50
5278;DHT22;2662;51.194;6.614;2022-09-06T09:30:48;38.90;73.50
5278;DHT22;2662;51.194;6.614;2022-09-06T09:33:26;39.40;71.80
5278;DHT22;2662;51.194;6.614;2022-09-06T09:35:53;39.80;70.30
5278;DHT22;2662;51.194;6.614;2022-09-06T09:38:23;39.50;70.40
5278;DHT22;2662;51.194;6.614;2022-09-06T09:40:53;39.10;69.00
5278;DHT22;2662;51.194;6.614;2022-09-06T09:43:22;38.80;70.50
5278;DHT22;2662;51.194;6.614;2022-09-06T09:46:09;39.10;70.40
5278;DHT22;2662;51.194;6.614;2022-09-06T09:48:37;39.00;69.70
5278;DHT22;2662;51.194;6.614;2022-09-06T09:51:23;39.40;69.10
5278;DHT22;2662;51.194;6.614;2022-09-06T09:53:52;39.50;66.30
5278;DHT22;2662;51.194;6.614;2022-09-06T09:56:27;39.40;67.40
5278;DHT22;2662;51.194;6.614;2022-09-06T09:58:55;39.00;67.50
5278;DHT22;2662;51.194;6.614;2022-09-06T10:01:25;38.70;68.90
5278;DHT22;2662;51.194;6.614;2022-09-06T10:04:02;38.80;67.80
5278;DHT22;2662;51.194;6.614;2022-09-06T10:06:30;38.80;66.60
5278;DHT22;2662;51.194;6.614;2022-09-06T10:08:57;38.60;66.60
5278;DHT22;2662;51.194;6.614;2022-09-06T10:11:38;38.50;67.60
5278;DHT22;2662;51.194;6.614;2022-09-06T10:14:23;38.80;68.10
5278;DHT22;2662;51.194;6.614;2022-09-06T10:16:50;38.90;67.30
5278;DHT22;2662;51.194;6.614;2022-09-06T10:19:41;39.00;66.90
5278;DHT22;2662;51.194;6.614;2022-09-06T10:22:25;38.80;66.90
5278;DHT22;2662;51.194;6.614;2022-09-06T10:28:01;38.40;67.10
5278;DHT22;2662;51.194;6.614;2022-09-06T10:30:31;38.30;67.70
5278;DHT22;2662;51.194;6.614;2022-09-06T10:33:04;38.30;67.30
5278;DHT22;2662;51.194;6.614;2022-09-06T10:35:37;38.40;67.60
5278;DHT22;2662;51.194;6.614;2022-09-06T10:38:19;38.00;67.60
5278;DHT22;2662;51.194;6.614;2022-09-06T10:40:55;37.90;68.40
5278;DHT22;2662;51.194;6.614;2022-09-06T10:43:31;37.50;69.30
5278;DHT22;2662;51.194;6.614;2022-09-06T10:46:10;37.00;69.50
5278;DHT22;2662;51.194;6.614;2022-09-06T10:48:40;36.40;70.10
5278;DHT22;2662;51.194;6.614;2022-09-06T10:51:17;35.80;71.70
5278;DHT22;2662;51.194;6.614;2022-09-06T10:53:51;35.40;72.80
5278;DHT22;2662;51.194;6.614;2022-09-06T10:56:23;34.50;74.30
5278;DHT22;2662;51.194;6.614;2022-09-06T10:58:53;33.80;74.90
5278;DHT22;2662;51.194;6.614;2022-09-06T11:01:28;33.20;74.40
5278;DHT22;2662;51.194;6.614;2022-09-06T11:03:59;32.60;76.50
5278;DHT22;2662;51.194;6.614;2022-09-06T11:06:31;32.40;76.60
5278;DHT22;2662;51.194;6.614;2022-09-06T11:09:07;32.20;77.20
5278;DHT22;2662;51.194;6.614;2022-09-06T11:11:41;32.10;78.30
5278;DHT22;2662;51.194;6.614;2022-09-06T11:14:12;32.10;78.90
5278;DHT22;2662;51.194;6.614;2022-09-06T11:16:45;32.10;78.70
5278;DHT22;2662;51.194;6.614;2022-09-06T11:19:17;32.10;79.20
5278;DHT22;2662;51.194;6.614;2022-09-06T11:22:11;32.20;79.60
5278;DHT22;2662;51.194;6.614;2022-09-06T11:24:59;32.20;79.90
5278;DHT22;2662;51.194;6.614;2022-09-06T11:27:35;32.20;79.60
5278;DHT22;2662;51.194;6.614;2022-09-06T11:30:04;32.20;79.40
5278;DHT22;2662;51.194;6.614;2022-09-06T11:32:33;32.10;79.90
5278;DHT22;2662;51.194;6.614;2022-09-06T11:35:05;32.20;80.30
5278;DHT22;2662;51.194;6.614;2022-09-06T11:37:38;32.30;80.50
5278;DHT22;2662;51.194;6.614;2022-09-06T11:40:14;32.30;80.00
5278;DHT22;2662;51.194;6.614;2022-09-06T11:43:10;32.30;80.20
5278;DHT22;2662;51.194;6.614;2022-09-06T11:45:40;32.40;80.50
5278;DHT22;2662;51.194;6.614;2022-09-06T11:48:35;32.20;79.80
5278;DHT22;2662;51.194;6.614;2022-09-06T11:51:08;32.20;81.30
5278;DHT22;2662;51.194;6.614;2022-09-06T11:56:51;32.30;81.70
5278;DHT22;2662;51.194;6.614;2022-09-06T11:59:32;32.50;81.30
5278;DHT22;2662;51.194;6.614;2022-09-06T12:02:01;32.50;81.40
5278;DHT22;2662;51.194;6.614;2022-09-06T12:07:34;32.50;81.10
5278;DHT22;2662;51.194;6.614;2022-09-06T12:10:40;32.50;81.40
5278;DHT22;2662;51.194;6.614;2022-09-06T12:13:33;32.50;82.10
5278;DHT22;2662;51.194;6.614;2022-09-06T12:16:00;32.60;81.70
5278;DHT22;2662;51.194;6.614;2022-09-06T12:18:59;32.50;81.50
5278;DHT22;2662;51.194;6.614;2022-09-06T12:21:41;32.60;81.50
5278;DHT22;2662;51.194;6.614;2022-09-06T12:27:14;32.50;82.00
5278;DHT22;2662;51.194;6.614;2022-09-06T12:29:55;32.50;81.40
5278;DHT22;2662;51.194;6.614;2022-09-06T12:32:27;32.60;81.70
5278;DHT22;2662;51.194;6.614;2022-09-06T12:34:55;32.80;81.60
5278;DHT22;2662;51.194;6.614;2022-09-06T12:37:31;32.80;81.30
5278;DHT22;2662;51.194;6.614;2022-09-06T12:39:58;33.00;81.40
5278;DHT22;2662;51.194;6.614;2022-09-06T12:42:25;33.10;80.30
5278;DHT22;2662;51.194;6.614;2022-09-06T12:44:54;33.20;78.10
5278;DHT22;2662;51.194;6.614;2022-09-06T12:47:24;33.10;78.80
5278;DHT22;2662;51.194;6.614;2022-09-06T12:50:15;32.90;78.60
5278;DHT22;2662;51.194;6.614;2022-09-06T12:52:44;32.80;79.30
5278;DHT22;2662;51.194;6.614;2022-09-06T12:55:23;33.00;77.20
5278;DHT22;2662;51.194;6.614;2022-09-06T12:57:53;32.90;78.50
5278;DHT22;2662;51.194;6.614;2022-09-06T13:00:22;32.80;75.40
5278;DHT22;2662;51.194;6.614;2022-09-06T13:03:02;32.80;71.90
5278;DHT22;2662;51.194;6.614;2022-09-06T13:05:31;32.90;70.50
5278;DHT22;2662;51.194;6.614;2022-09-06T13:08:01;33.00;70.80
5278;DHT22;2662;51.194;6.614;2022-09-06T13:10:28;32.90;66.50
5278;DHT22;2662;51.194;6.614;2022-09-06T13:12:56;32.80;66.90
5278;DHT22;2662;51.194;6.614;2022-09-06T13:15:26;32.80;68.30
5278;DHT22;2662;51.194;6.614;2022-09-06T13:18:18;32.80;66.20
5278;DHT22;2662;51.194;6.614;2022-09-06T13:20:55;32.80;65.70
5278;DHT22;2662;51.194;6.614;2022-09-06T13:23:22;32.90;65.70
5278;DHT22;2662;51.194;6.614;2022-09-06T13:25:51;33.00;66.00
5278;DHT22;2662;51.194;6.614;2022-09-06T13:28:26;32.90;64.70
5278;DHT22;2662;51.194;6.614;2022-09-06T13:31:07;33.00;64.70
5278;DHT22;2662;51.194;6.614;2022-09-06T13:33:36;33.20;63.00
5278;DHT22;2662;51.194;6.614;2022-09-06T13:36:16;33.20;63.30
5278;DHT22;2662;51.194;6.614;2022-09-06T13:38:45;33.20;62.60
5278;DHT22;2662;51.194;6.614;2022-09-06T13:41:35;33.10;61.40
5278;DHT22;2662;51.194;6.614;2022-09-06T13:44:04;32.80;60.50
5278;DHT22;2662;51.194;6.614;2022-09-06T13:46:34;32.90;61.00
5278;DHT22;2662;51.194;6.614;2022-09-06T13:49:02;32.90;60.30
5278;DHT22;2662;51.194;6.614;2022-09-06T13:51:30;32.90;61.00
5278;DHT22;2662;51.194;6.614;2022-09-06T13:54:06;33.10;59.70
5278;DHT22;2662;51.194;6.614;2022-09-06T13:56:33;33.10;60.00
5278;DHT22;2662;51.194;6.614;2022-09-06T13:59:00;32.90;59.10
5278;DHT22;2662;51.194;6.614;2022-09-06T14:01:26;32.80;59.70
5278;DHT22;2662;51.194;6.614;2022-09-06T14:03:55;32.80;59.60
5278;DHT22;2662;51.194;6.614;2022-09-06T14:06:22;32.60;58.90
5278;DHT22;2662;51.194;6.614;2022-09-06T14:08:48;32.60;59.50
5278;DHT22;2662;51.194;6.614;2022-09-06T14:11:15;32.70;60.50
5278;DHT22;2662;51.194;6.614;2022-09-06T14:13:42;32.60;61.30
5278;DHT22;2662;51.194;6.614;2022-09-06T14:16:09;32.60;62.20
5278;DHT22;2662;51.194;6.614;2022-09-06T14:18:36;32.80;61.10
5278;DHT22;2662;51.194;6.614;2022-09-06T14:21:06;32.90;61.90
5278;DHT22;2662;51.194;6.614;2022-09-06T14:23:33;33.10;61.70
5278;DHT22;2662;51.194;6.614;2022-09-06T14:26:01;33.20;61.20
5278;DHT22;2662;51.194;6.614;2022-09-06T14:28:30;33.20;61.40
5278;DHT22;2662;51.194;6.614;2022-09-06T14:31:07;33.20;61.30
5278;DHT22;2662;51.194;6.614;2022-09-06T14:33:34;33.20;60.40
5278;DHT22;2662;51.194;6.614;2022-09-06T14:36:06;33.10;60.30
5278;DHT22;2662;51.194;6.614;2022-09-06T14:38:35;33.00;58.80
5278;DHT22;2662;51.194;6.614;2022-09-06T14:41:02;32.80;58.60
5278;DHT22;2662;51.194;6.614;2022-09-06T14:43:30;32.50;59.00
5278;DHT22;2662;51.194;6.614;2022-09-06T14:46:01;32.40;59.80
5278;DHT22;2662;51.194;6.614;2022-09-06T14:48:29;32.10;58.90
5278;DHT22;2662;51.194;6.614;2022-09-06T14:50:57;32.00;58.50
5278;DHT22;2662;51.194;6.614;2022-09-06T14:53:27;31.90;58.20
5278;DHT22;2662;51.194;6.614;2022-09-06T14:56:00;32.00;59.00
5278;DHT22;2662;51.194;6.614;2022-09-06T14:58:29;32.00;58.50
5278;DHT22;2662;51.194;6.614;2022-09-06T15:01:08;31.90;57.70
5278;DHT22;2662;51.194;6.614;2022-09-06T15:03:36;32.00;56.80
5278;DHT22;2662;51.194;6.614;2022-09-06T15:06:03;32.00;57.10
5278;DHT22;2662;51.194;6.614;2022-09-06T15:08:31;32.00;56.60
5278;DHT22;2662;51.194;6.614;2022-09-06T15:10:58;31.90;55.60
5278;DHT22;2662;51.194;6.614;2022-09-06T15:13:26;31.90;55.50
5278;DHT22;2662;51.194;6.614;2022-09-06T15:15:53;31.80;55.20
5278;DHT22;2662;51.194;6.614;2022-09-06T15:18:20;31.80;56.20
5278;DHT22;2662;51.194;6.614;2022-09-06T15:20:47;31.80;57.70
5278;DHT22;2662;51.194;6.614;2022-09-06T15:23:14;31.70;58.90
5278;DHT22;2662;51.194;6.614;2022-09-06T15:25:47;31.60;58.10
5278;DHT22;2662;51.194;6.614;2022-09-06T15:28:14;31.60;58.90
5278;DHT22;2662;51.194;6.614;2022-09-06T15:30:41;31.60;56.60
5278;DHT22;2662;51.194;6.614;2022-09-06T15:33:08;31.40;56.50
5278;DHT22;2662;51.194;6.614;2022-09-06T15:35:36;31.40;56.50
5278;DHT22;2662;51.194;6.614;2022-09-06T15:38:03;31.40;56.50
5278;DHT22;2662;51.194;6.614;2022-09-06T15:40:30;31.50;57.60
5278;DHT22;2662;51.194;6.614;2022-09-06T15:42:58;31.60;59.10
5278;DHT22;2662;51.194;6.614;2022-09-06T15:45:26;31.60;58.60
5278;DHT22;2662;51.194;6.614;2022-09-06T15:47:53;31.70;58.70
5278;DHT22;2662;51.194;6.614;2022-09-06T15:50:20;31.80;58.60
5278;DHT22;2662;51.194;6.614;2022-09-06T15:52:48;31.80;59.30
5278;DHT22;2662;51.194;6.614;2022-09-06T15:55:15;31.60;59.90
5278;DHT22;2662;51.194;6.614;2022-09-06T15:58:00;31.50;59.60
5278;DHT22;2662;51.194;6.614;2022-09-06T16:00:27;31.40;59.80
5278;DHT22;2662;51.194;6.614;2022-09-06T16:02:56;31.30;59.80
5278;DHT22;2662;51.194;6.614;2022-09-06T16:05:23;31.20;60.40
5278;DHT22;2662;51.194;6.614;2022-09-06T16:07:49;31.30;60.90
5278;DHT22;2662;51.194;6.614;2022-09-06T16:10:16;31.20;59.30
5278;DHT22;2662;51.194;6.614;2022-09-06T16:12:43;31.20;58.80
5278;DHT22;2662;51.194;6.614;2022-09-06T16:15:11;31.20;59.40
5278;DHT22;2662;51.194;6.614;2022-09-06T16:17:38;31.20;58.40
5278;DHT22;2662;51.194;6.614;2022-09-06T16:20:06;31.20;58.50
5278;DHT22;2662;51.194;6.614;2022-09-06T16:22:32;31.20;58.90
5278;DHT22;2662;51.194;6.614;2022-09-06T16:24:59;31.10;57.90
5278;DHT22;2662;51.194;6.614;2022-09-06T16:27:26;31.10;58.50
5278;DHT22;2662;51.194;6.614;2022-09-06T16:29:53;31.10;59.70
5278;DHT22;2662;51.194;6.614;2022-09-06T16:32:21;31.10;59.10
5278;DHT22;2662;51.194;6.614;2022-09-06T16:34:48;31.00;59.10
5278;DHT22;2662;51.194;6.614;2022-09-06T16:37:15;31.00;59.20
5278;DHT22;2662;51.194;6.614;2022-09-06T16:39:42;30.90;58.20